KLM135 EKYT-EYKA
Flight info
| Callsign | KLM135 |
|---|---|
| Flight time | 1h 15m |
| Altitude | 35000 |
| Route | AAL DCT RISMA DCT VEDEN DCT KEDUX DCT AKUMA |
| Aircraft | B738/M-SDE2E3FGHIRWXY/LB1 |
Departure
| Time | 2026-04-16 08:25 |
|---|---|
| Airport | Aalborg Airport (EKYT) |
Arrival
| Time | 2026-04-16 09:41 |
|---|---|
| Airport | Kaunas International Airport (EYKA) |
| Time | Latitude | Longitude | Altitude | Speed | Heading |
|---|---|---|---|---|---|
| 2026-04-16 08:12 | 57.08738 | 9.86932 | 18 ft | 0 kts | 55° |
| 2026-04-16 08:16 | 57.08731 | 9.86915 | 20 ft | 3 kts | 55° |
| 2026-04-16 08:16 | 57.08717 | 9.86891 | 21 ft | 3 kts | 14° |
| 2026-04-16 08:16 | 57.08698 | 9.86894 | 20 ft | 3 kts | 323° |
| 2026-04-16 08:16 | 57.08696 | 9.86897 | 19 ft | 0 kts | 315° |
| 2026-04-16 08:20 | 57.08702 | 9.86880 | 21 ft | 6 kts | 302° |
| 2026-04-16 08:20 | 57.08719 | 9.86805 | 18 ft | 6 kts | 293° |
| 2026-04-16 08:20 | 57.08745 | 9.86741 | 18 ft | 6 kts | 314° |
| 2026-04-16 08:20 | 57.08776 | 9.86688 | 18 ft | 6 kts | 320° |
| 2026-04-16 08:21 | 57.08809 | 9.86641 | 18 ft | 6 kts | 322° |
| 2026-04-16 08:21 | 57.08873 | 9.86552 | 18 ft | 17 kts | 322° |
| 2026-04-16 08:21 | 57.08971 | 9.86406 | 18 ft | 18 kts | 322° |
| 2026-04-16 08:21 | 57.09069 | 9.86268 | 19 ft | 17 kts | 321° |
| 2026-04-16 08:22 | 57.09163 | 9.86133 | 18 ft | 17 kts | 323° |
| 2026-04-16 08:22 | 57.09255 | 9.86007 | 18 ft | 16 kts | 323° |
| 2026-04-16 08:22 | 57.09333 | 9.85867 | 19 ft | 16 kts | 289° |
| 2026-04-16 08:22 | 57.09329 | 9.85676 | 18 ft | 15 kts | 264° |
| 2026-04-16 08:23 | 57.09321 | 9.85490 | 18 ft | 15 kts | 266° |
| 2026-04-16 08:23 | 57.09303 | 9.85254 | 18 ft | 23 kts | 262° |
| 2026-04-16 08:23 | 57.09282 | 9.84917 | 18 ft | 30 kts | 264° |
| 2026-04-16 08:23 | 57.09252 | 9.84510 | 18 ft | 32 kts | 262° |
| 2026-04-16 08:24 | 57.09227 | 9.84127 | 18 ft | 29 kts | 262° |
| 2026-04-16 08:24 | 57.09205 | 9.83769 | 18 ft | 27 kts | 263° |
| 2026-04-16 08:24 | 57.09254 | 9.83477 | 19 ft | 24 kts | 311° |
| 2026-04-16 08:24 | 57.09370 | 9.83442 | 18 ft | 17 kts | 54° |
| 2026-04-16 08:25 | 57.09396 | 9.83653 | 18 ft | 26 kts | 83° |
| 2026-04-16 08:25 | 57.09449 | 9.84491 | 18 ft | 104 kts | 84° |
| 2026-04-16 08:25 | 57.09573 | 9.86199 | 136 ft | 155 kts | 83° |
| 2026-04-16 08:25 | 57.09720 | 9.88250 | 857 ft | 173 kts | 86° |
| 2026-04-16 08:26 | 57.09782 | 9.90573 | 1655 ft | 189 kts | 94° |
| 2026-04-16 08:26 | 57.09723 | 9.93124 | 2130 ft | 215 kts | 95° |
| 2026-04-16 08:26 | 57.09642 | 9.95970 | 2754 ft | 228 kts | 95° |
| 2026-04-16 08:26 | 57.09561 | 9.98960 | 3303 ft | 250 kts | 95° |
| 2026-04-16 08:27 | 57.09479 | 10.02237 | 4053 ft | 261 kts | 96° |
| 2026-04-16 08:27 | 57.09397 | 10.05633 | 4912 ft | 271 kts | 95° |
| 2026-04-16 08:27 | 57.09317 | 10.09130 | 5796 ft | 276 kts | 93° |
| 2026-04-16 08:27 | 57.09238 | 10.12675 | 6737 ft | 280 kts | 93° |
| 2026-04-16 08:28 | 57.09162 | 10.16265 | 7628 ft | 284 kts | 92° |
| 2026-04-16 08:28 | 57.09085 | 10.19904 | 8518 ft | 287 kts | 92° |
| 2026-04-16 08:28 | 57.09007 | 10.23619 | 9347 ft | 295 kts | 92° |
| 2026-04-16 08:28 | 57.08926 | 10.27423 | 10210 ft | 300 kts | 92° |
| 2026-04-16 08:29 | 57.08843 | 10.31339 | 10774 ft | 317 kts | 92° |
| 2026-04-16 08:29 | 57.08753 | 10.35565 | 10959 ft | 344 kts | 92° |
| 2026-04-16 08:29 | 57.08654 | 10.40105 | 11177 ft | 367 kts | 92° |
| 2026-04-16 08:29 | 57.08548 | 10.44878 | 11736 ft | 378 kts | 92° |
| 2026-04-16 08:30 | 57.08439 | 10.49713 | 12576 ft | 380 kts | 92° |
| 2026-04-16 08:30 | 57.08328 | 10.54567 | 13340 ft | 385 kts | 91° |
| 2026-04-16 08:30 | 57.08212 | 10.59537 | 14115 ft | 388 kts | 91° |
| 2026-04-16 08:30 | 57.08096 | 10.64458 | 14831 ft | 392 kts | 91° |
| 2026-04-16 08:31 | 57.07974 | 10.69505 | 15450 ft | 398 kts | 91° |
| 2026-04-16 08:31 | 57.07849 | 10.74627 | 16088 ft | 403 kts | 91° |
| 2026-04-16 08:31 | 57.07721 | 10.79799 | 16753 ft | 407 kts | 91° |
| 2026-04-16 08:31 | 57.07588 | 10.85037 | 17413 ft | 412 kts | 91° |
| 2026-04-16 08:32 | 57.07452 | 10.90325 | 18043 ft | 417 kts | 91° |
| 2026-04-16 08:32 | 57.07312 | 10.95680 | 18633 ft | 422 kts | 91° |
| 2026-04-16 08:32 | 57.07175 | 11.00844 | 19173 ft | 425 kts | 91° |
| 2026-04-16 08:32 | 57.07028 | 11.06287 | 19768 ft | 428 kts | 91° |
| 2026-04-16 08:33 | 57.06877 | 11.11772 | 20343 ft | 431 kts | 92° |
| 2026-04-16 08:33 | 57.06723 | 11.17304 | 20893 ft | 434 kts | 92° |
| 2026-04-16 08:33 | 57.06565 | 11.22867 | 21434 ft | 438 kts | 92° |
| 2026-04-16 08:33 | 57.06404 | 11.28475 | 21971 ft | 441 kts | 92° |
| 2026-04-16 08:34 | 57.06240 | 11.34065 | 22497 ft | 444 kts | 92° |
| 2026-04-16 08:34 | 57.06071 | 11.39761 | 23016 ft | 448 kts | 92° |
| 2026-04-16 08:34 | 57.05899 | 11.45482 | 23517 ft | 451 kts | 92° |
| 2026-04-16 08:34 | 57.05722 | 11.51263 | 23973 ft | 454 kts | 93° |
| 2026-04-16 08:35 | 57.05542 | 11.57063 | 24395 ft | 457 kts | 93° |
| 2026-04-16 08:35 | 57.05359 | 11.62884 | 24826 ft | 459 kts | 93° |
| 2026-04-16 08:35 | 57.05171 | 11.68748 | 25238 ft | 461 kts | 94° |
| 2026-04-16 08:35 | 57.04980 | 11.74648 | 25638 ft | 464 kts | 94° |
| 2026-04-16 08:36 | 57.04785 | 11.80578 | 26023 ft | 466 kts | 94° |
| 2026-04-16 08:36 | 57.04587 | 11.86537 | 26416 ft | 468 kts | 93° |
| 2026-04-16 08:36 | 57.04385 | 11.92529 | 26769 ft | 471 kts | 93° |
| 2026-04-16 08:36 | 57.04178 | 11.98556 | 27131 ft | 474 kts | 93° |
| 2026-04-16 08:37 | 57.03946 | 12.04341 | 27485 ft | 476 kts | 94° |
| 2026-04-16 08:37 | 57.03668 | 12.10404 | 27841 ft | 478 kts | 95° |
| 2026-04-16 08:37 | 57.03375 | 12.16425 | 28188 ft | 480 kts | 95° |
| 2026-04-16 08:37 | 57.03071 | 12.22535 | 28523 ft | 482 kts | 95° |
| 2026-04-16 08:38 | 57.02766 | 12.28669 | 28858 ft | 484 kts | 95° |
| 2026-04-16 08:38 | 57.02461 | 12.34824 | 29266 ft | 484 kts | 95° |
| 2026-04-16 08:38 | 57.02158 | 12.40953 | 29779 ft | 481 kts | 95° |
| 2026-04-16 08:38 | 57.01855 | 12.47048 | 30341 ft | 479 kts | 95° |
| 2026-04-16 08:39 | 57.01551 | 12.53144 | 30627 ft | 480 kts | 95° |
| 2026-04-16 08:39 | 57.01244 | 12.59260 | 30908 ft | 482 kts | 95° |
| 2026-04-16 08:39 | 57.00934 | 12.65373 | 31295 ft | 480 kts | 95° |
| 2026-04-16 08:39 | 57.00623 | 12.71446 | 31755 ft | 477 kts | 95° |
| 2026-04-16 08:40 | 57.00309 | 12.77505 | 32173 ft | 475 kts | 95° |
| 2026-04-16 08:40 | 56.99994 | 12.83532 | 32525 ft | 475 kts | 95° |
| 2026-04-16 08:40 | 56.99675 | 12.89576 | 32866 ft | 475 kts | 95° |
| 2026-04-16 08:40 | 56.99355 | 12.95591 | 33256 ft | 474 kts | 95° |
| 2026-04-16 08:41 | 56.99047 | 13.01327 | 33642 ft | 472 kts | 95° |
| 2026-04-16 08:41 | 56.98722 | 13.07314 | 34008 ft | 471 kts | 95° |
| 2026-04-16 08:41 | 56.98393 | 13.13327 | 34113 ft | 477 kts | 95° |
| 2026-04-16 08:41 | 56.98058 | 13.19398 | 34292 ft | 479 kts | 95° |
| 2026-04-16 08:42 | 56.97720 | 13.25476 | 34566 ft | 478 kts | 95° |
| 2026-04-16 08:42 | 56.97379 | 13.31530 | 34899 ft | 476 kts | 95° |
| 2026-04-16 08:42 | 56.97037 | 13.37563 | 35200 ft | 475 kts | 95° |
| 2026-04-16 08:42 | 56.96691 | 13.43609 | 35195 ft | 479 kts | 95° |
| 2026-04-16 08:43 | 56.95987 | 13.55761 | 35212 ft | 478 kts | 95° |
| 2026-04-16 08:43 | 56.95279 | 13.67783 | 35206 ft | 473 kts | 95° |
| 2026-04-16 08:44 | 56.94560 | 13.79791 | 35223 ft | 475 kts | 95° |
| 2026-04-16 08:44 | 56.93826 | 13.91853 | 35222 ft | 477 kts | 95° |
| 2026-04-16 08:45 | 56.93104 | 14.03535 | 35221 ft | 478 kts | 95° |
| 2026-04-16 08:45 | 56.92342 | 14.15654 | 35217 ft | 479 kts | 95° |
| 2026-04-16 08:46 | 56.91569 | 14.27774 | 35220 ft | 480 kts | 95° |
| 2026-04-16 08:46 | 56.90782 | 14.39910 | 35217 ft | 480 kts | 95° |
| 2026-04-16 08:47 | 56.89984 | 14.52041 | 35220 ft | 480 kts | 95° |
| 2026-04-16 08:47 | 56.89175 | 14.64156 | 35223 ft | 480 kts | 95° |
| 2026-04-16 08:48 | 56.88353 | 14.76280 | 35216 ft | 480 kts | 95° |
| 2026-04-16 08:48 | 56.87519 | 14.88392 | 35221 ft | 480 kts | 95° |
| 2026-04-16 08:49 | 56.86688 | 15.00312 | 35219 ft | 480 kts | 95° |
| 2026-04-16 08:49 | 56.85834 | 15.12371 | 35217 ft | 481 kts | 95° |
| 2026-04-16 08:50 | 56.84970 | 15.24414 | 35220 ft | 481 kts | 96° |
| 2026-04-16 08:50 | 56.84087 | 15.36550 | 35217 ft | 482 kts | 96° |
| 2026-04-16 08:51 | 56.83191 | 15.48697 | 35227 ft | 483 kts | 96° |
| 2026-04-16 08:51 | 56.82435 | 15.58816 | 35224 ft | 484 kts | 96° |
| 2026-04-16 08:52 | 56.81514 | 15.70996 | 35220 ft | 484 kts | 96° |
| 2026-04-16 08:52 | 56.80580 | 15.83184 | 35218 ft | 485 kts | 96° |
| 2026-04-16 08:53 | 56.79633 | 15.95376 | 35221 ft | 486 kts | 96° |
| 2026-04-16 08:53 | 56.78697 | 16.07277 | 35223 ft | 486 kts | 96° |
| 2026-04-16 08:54 | 56.77721 | 16.19527 | 35219 ft | 487 kts | 96° |
| 2026-04-16 08:54 | 56.76742 | 16.31664 | 35220 ft | 487 kts | 96° |
| 2026-04-16 08:55 | 56.75744 | 16.43886 | 35216 ft | 487 kts | 96° |
| 2026-04-16 08:55 | 56.74734 | 16.56092 | 35234 ft | 487 kts | 97° |
| 2026-04-16 08:56 | 56.73712 | 16.68300 | 35217 ft | 487 kts | 97° |
| 2026-04-16 08:56 | 56.72678 | 16.80499 | 35211 ft | 487 kts | 97° |
| 2026-04-16 08:57 | 56.71633 | 16.92678 | 35212 ft | 487 kts | 97° |
| 2026-04-16 08:57 | 56.70600 | 17.04587 | 35210 ft | 486 kts | 97° |
| 2026-04-16 08:58 | 56.69539 | 17.16669 | 35210 ft | 486 kts | 97° |
| 2026-04-16 08:58 | 56.68460 | 17.28821 | 35207 ft | 486 kts | 97° |
| 2026-04-16 08:59 | 56.67369 | 17.40958 | 35208 ft | 486 kts | 97° |
| 2026-04-16 08:59 | 56.66267 | 17.53090 | 35206 ft | 486 kts | 97° |
| 2026-04-16 09:00 | 56.65154 | 17.65195 | 35207 ft | 486 kts | 97° |
| 2026-04-16 09:00 | 56.64035 | 17.77239 | 35215 ft | 486 kts | 98° |
| 2026-04-16 09:01 | 56.62328 | 17.95369 | 35202 ft | 485 kts | 98° |
| 2026-04-16 09:02 | 56.61202 | 18.07153 | 35211 ft | 484 kts | 98° |
| 2026-04-16 09:02 | 56.60045 | 18.19155 | 35186 ft | 481 kts | 98° |
| 2026-04-16 09:03 | 56.58881 | 18.31099 | 35201 ft | 479 kts | 98° |
| 2026-04-16 09:03 | 56.57713 | 18.42952 | 35189 ft | 476 kts | 98° |
| 2026-04-16 09:04 | 56.56547 | 18.54679 | 35189 ft | 475 kts | 99° |
| 2026-04-16 09:04 | 56.55365 | 18.66444 | 35185 ft | 474 kts | 99° |
| 2026-04-16 09:05 | 56.54175 | 18.78189 | 35194 ft | 473 kts | 99° |
| 2026-04-16 09:05 | 56.52020 | 18.89452 | 35199 ft | 476 kts | 117° |
| 2026-04-16 09:06 | 56.48153 | 18.99202 | 35197 ft | 477 kts | 129° |
| 2026-04-16 09:06 | 56.43959 | 19.08171 | 35168 ft | 479 kts | 130° |
| 2026-04-16 09:07 | 56.39695 | 19.17369 | 35187 ft | 481 kts | 129° |
| 2026-04-16 09:07 | 56.35413 | 19.26704 | 35191 ft | 484 kts | 129° |
| 2026-04-16 09:08 | 56.31102 | 19.36098 | 35190 ft | 487 kts | 129° |
| 2026-04-16 09:08 | 56.26767 | 19.45503 | 35190 ft | 488 kts | 129° |
| 2026-04-16 09:09 | 56.22416 | 19.54903 | 35182 ft | 488 kts | 129° |
| 2026-04-16 09:09 | 56.18785 | 19.65149 | 35193 ft | 487 kts | 117° |
| 2026-04-16 09:10 | 56.15621 | 19.75892 | 35183 ft | 486 kts | 117° |
| 2026-04-16 09:10 | 56.12444 | 19.86602 | 35175 ft | 485 kts | 117° |
| 2026-04-16 09:11 | 56.09233 | 19.97233 | 35172 ft | 485 kts | 118° |
| 2026-04-16 09:11 | 56.06099 | 20.07498 | 35179 ft | 484 kts | 118° |
| 2026-04-16 09:12 | 56.02864 | 20.18036 | 35174 ft | 483 kts | 118° |
| 2026-04-16 09:12 | 55.99633 | 20.28520 | 35185 ft | 483 kts | 118° |
| 2026-04-16 09:13 | 55.96390 | 20.39006 | 35170 ft | 482 kts | 118° |
| 2026-04-16 09:13 | 55.93136 | 20.49479 | 35151 ft | 482 kts | 118° |
| 2026-04-16 09:14 | 55.89868 | 20.59948 | 35164 ft | 483 kts | 118° |
| 2026-04-16 09:14 | 55.86586 | 20.70417 | 35175 ft | 485 kts | 118° |
| 2026-04-16 09:15 | 55.83276 | 20.80930 | 35180 ft | 488 kts | 118° |
| 2026-04-16 09:15 | 55.79946 | 20.91462 | 35176 ft | 489 kts | 119° |
| 2026-04-16 09:16 | 55.76696 | 21.01694 | 35168 ft | 490 kts | 119° |
| 2026-04-16 09:16 | 55.73330 | 21.12244 | 35162 ft | 490 kts | 119° |
| 2026-04-16 09:17 | 55.69961 | 21.22759 | 35168 ft | 490 kts | 119° |
| 2026-04-16 09:17 | 55.66589 | 21.33237 | 35153 ft | 489 kts | 119° |
| 2026-04-16 09:18 | 55.63214 | 21.43677 | 35150 ft | 488 kts | 119° |
| 2026-04-16 09:18 | 55.59836 | 21.54084 | 35147 ft | 486 kts | 119° |
| 2026-04-16 09:19 | 55.56483 | 21.64369 | 35147 ft | 485 kts | 119° |
| 2026-04-16 09:19 | 55.53111 | 21.74665 | 35151 ft | 484 kts | 120° |
| 2026-04-16 09:20 | 55.49725 | 21.84965 | 34588 ft | 489 kts | 120° |
| 2026-04-16 09:20 | 55.48017 | 21.90143 | 33923 ft | 488 kts | 120° |
| 2026-04-16 09:20 | 55.46305 | 21.95320 | 33177 ft | 489 kts | 120° |
| 2026-04-16 09:20 | 55.44655 | 22.00303 | 32442 ft | 489 kts | 120° |
| 2026-04-16 09:21 | 55.42954 | 22.05424 | 31704 ft | 489 kts | 120° |
| 2026-04-16 09:21 | 55.41234 | 22.10596 | 30940 ft | 489 kts | 120° |
| 2026-04-16 09:21 | 55.39508 | 22.15773 | 30154 ft | 490 kts | 120° |
| 2026-04-16 09:21 | 55.37784 | 22.20932 | 29159 ft | 489 kts | 120° |
| 2026-04-16 09:22 | 55.36069 | 22.26053 | 28517 ft | 482 kts | 120° |
| 2026-04-16 09:22 | 55.34380 | 22.31087 | 27880 ft | 475 kts | 120° |
| 2026-04-16 09:22 | 55.32734 | 22.35981 | 27309 ft | 466 kts | 120° |
| 2026-04-16 09:22 | 55.31100 | 22.40831 | 26743 ft | 458 kts | 120° |
| 2026-04-16 09:23 | 55.29493 | 22.45595 | 26152 ft | 450 kts | 120° |
| 2026-04-16 09:23 | 55.27898 | 22.50314 | 25543 ft | 447 kts | 120° |
| 2026-04-16 09:23 | 55.26316 | 22.54985 | 24974 ft | 443 kts | 120° |
| 2026-04-16 09:23 | 55.24748 | 22.59607 | 24423 ft | 439 kts | 120° |
| 2026-04-16 09:24 | 55.23194 | 22.64179 | 23863 ft | 434 kts | 120° |
| 2026-04-16 09:24 | 55.21659 | 22.68696 | 23237 ft | 429 kts | 119° |
| 2026-04-16 09:24 | 55.20505 | 22.73455 | 22636 ft | 423 kts | 103° |
| 2026-04-16 09:24 | 55.20128 | 22.78514 | 22201 ft | 414 kts | 90° |
| 2026-04-16 09:25 | 55.20397 | 22.83441 | 21850 ft | 402 kts | 77° |
| 2026-04-16 09:25 | 55.21095 | 22.88149 | 21309 ft | 397 kts | 75° |
| 2026-04-16 09:25 | 55.21793 | 22.92792 | 20759 ft | 390 kts | 77° |
| 2026-04-16 09:25 | 55.22442 | 22.97377 | 20241 ft | 384 kts | 78° |
| 2026-04-16 09:26 | 55.22914 | 23.01712 | 19727 ft | 378 kts | 88° |
| 2026-04-16 09:26 | 55.22686 | 23.06242 | 19297 ft | 370 kts | 103° |
| 2026-04-16 09:26 | 55.21865 | 23.10474 | 18847 ft | 364 kts | 111° |
| 2026-04-16 09:26 | 55.20922 | 23.14503 | 18332 ft | 361 kts | 111° |
| 2026-04-16 09:27 | 55.19949 | 23.18542 | 17749 ft | 358 kts | 112° |
| 2026-04-16 09:27 | 55.18988 | 23.22542 | 17231 ft | 355 kts | 112° |
| 2026-04-16 09:27 | 55.18042 | 23.26514 | 16706 ft | 352 kts | 112° |
| 2026-04-16 09:27 | 55.17113 | 23.30451 | 16195 ft | 349 kts | 112° |
| 2026-04-16 09:28 | 55.16193 | 23.34366 | 15684 ft | 348 kts | 112° |
| 2026-04-16 09:28 | 55.15272 | 23.38301 | 15183 ft | 349 kts | 112° |
| 2026-04-16 09:28 | 55.14349 | 23.42238 | 14679 ft | 349 kts | 112° |
| 2026-04-16 09:28 | 55.13428 | 23.46169 | 14172 ft | 352 kts | 112° |
| 2026-04-16 09:29 | 55.12493 | 23.50150 | 13625 ft | 354 kts | 112° |
| 2026-04-16 09:29 | 55.11561 | 23.54109 | 13064 ft | 349 kts | 112° |
| 2026-04-16 09:29 | 55.10650 | 23.57977 | 12561 ft | 340 kts | 112° |
| 2026-04-16 09:29 | 55.09758 | 23.61759 | 12053 ft | 333 kts | 112° |
| 2026-04-16 09:30 | 55.08884 | 23.65448 | 11849 ft | 322 kts | 112° |
| 2026-04-16 09:30 | 55.08042 | 23.69001 | 11690 ft | 312 kts | 111° |
| 2026-04-16 09:30 | 55.07375 | 23.72483 | 11561 ft | 304 kts | 104° |
| 2026-04-16 09:30 | 55.06863 | 23.76058 | 11436 ft | 304 kts | 103° |
| 2026-04-16 09:31 | 55.06352 | 23.79633 | 11310 ft | 301 kts | 104° |
| 2026-04-16 09:31 | 55.05839 | 23.83084 | 11175 ft | 287 kts | 104° |
| 2026-04-16 09:31 | 55.05387 | 23.86403 | 10989 ft | 276 kts | 96° |
| 2026-04-16 09:31 | 55.05445 | 23.89720 | 10713 ft | 274 kts | 85° |
| 2026-04-16 09:32 | 55.05634 | 23.93041 | 10386 ft | 274 kts | 84° |
| 2026-04-16 09:32 | 55.05820 | 23.96350 | 10033 ft | 274 kts | 84° |
| 2026-04-16 09:32 | 55.05999 | 23.99653 | 9655 ft | 274 kts | 84° |
| 2026-04-16 09:32 | 55.06163 | 24.02807 | 9328 ft | 272 kts | 85° |
| 2026-04-16 09:33 | 55.06330 | 24.06084 | 8916 ft | 271 kts | 85° |
| 2026-04-16 09:33 | 55.06492 | 24.09347 | 8517 ft | 270 kts | 85° |
| 2026-04-16 09:33 | 55.06650 | 24.12589 | 8176 ft | 266 kts | 85° |
| 2026-04-16 09:33 | 55.06804 | 24.15795 | 7823 ft | 265 kts | 85° |
| 2026-04-16 09:34 | 55.06962 | 24.18989 | 7486 ft | 262 kts | 85° |
| 2026-04-16 09:34 | 55.07111 | 24.22134 | 7032 ft | 264 kts | 85° |
| 2026-04-16 09:34 | 55.07262 | 24.25345 | 6596 ft | 267 kts | 85° |
| 2026-04-16 09:34 | 55.07413 | 24.28595 | 6108 ft | 270 kts | 85° |
| 2026-04-16 09:35 | 55.07564 | 24.31864 | 5616 ft | 271 kts | 85° |
| 2026-04-16 09:35 | 55.07716 | 24.35143 | 5161 ft | 272 kts | 85° |
| 2026-04-16 09:35 | 55.07658 | 24.38440 | 4664 ft | 275 kts | 105° |
| 2026-04-16 09:35 | 55.06715 | 24.41338 | 4231 ft | 281 kts | 134° |
| 2026-04-16 09:36 | 55.05049 | 24.43135 | 3732 ft | 286 kts | 166° |
| 2026-04-16 09:36 | 55.03082 | 24.43206 | 3412 ft | 282 kts | 195° |
| 2026-04-16 09:36 | 55.01251 | 24.42165 | 3248 ft | 274 kts | 206° |
| 2026-04-16 09:36 | 54.99533 | 24.40880 | 3040 ft | 266 kts | 210° |
| 2026-04-16 09:37 | 54.98215 | 24.38828 | 2814 ft | 248 kts | 246° |
| 2026-04-16 09:37 | 54.97772 | 24.36067 | 2688 ft | 231 kts | 265° |
| 2026-04-16 09:37 | 54.97604 | 24.33376 | 2495 ft | 215 kts | 268° |
| 2026-04-16 09:37 | 54.97498 | 24.30901 | 2333 ft | 195 kts | 269° |
| 2026-04-16 09:38 | 54.97406 | 24.28705 | 2225 ft | 173 kts | 269° |
| 2026-04-16 09:38 | 54.97310 | 24.26757 | 2158 ft | 151 kts | 269° |
| 2026-04-16 09:38 | 54.97223 | 24.25009 | 1989 ft | 139 kts | 269° |
| 2026-04-16 09:38 | 54.97140 | 24.23378 | 1845 ft | 133 kts | 269° |
| 2026-04-16 09:39 | 54.97058 | 24.21765 | 1638 ft | 134 kts | 268° |
| 2026-04-16 09:39 | 54.96976 | 24.20136 | 1438 ft | 135 kts | 269° |
| 2026-04-16 09:39 | 54.96894 | 24.18503 | 1242 ft | 135 kts | 268° |
| 2026-04-16 09:39 | 54.96812 | 24.16863 | 1045 ft | 136 kts | 266° |
| 2026-04-16 09:40 | 54.96727 | 24.15228 | 846 ft | 135 kts | 266° |
| 2026-04-16 09:40 | 54.96648 | 24.13611 | 667 ft | 135 kts | 266° |
| 2026-04-16 09:40 | 54.96566 | 24.11986 | 482 ft | 135 kts | 265° |
| 2026-04-16 09:40 | 54.96485 | 24.10354 | 310 ft | 133 kts | 265° |
| 2026-04-16 09:41 | 54.96416 | 24.08861 | 255 ft | 106 kts | 264° |
| 2026-04-16 09:41 | 54.96385 | 24.08203 | 252 ft | 58 kts | 266° |
| 2026-04-16 09:41 | 54.96360 | 24.07779 | 247 ft | 26 kts | 263° |
| 2026-04-16 09:41 | 54.96347 | 24.07489 | 245 ft | 20 kts | 268° |
| 2026-04-16 09:42 | 54.96460 | 24.07327 | 246 ft | 15 kts | 4° |
| 2026-04-16 09:42 | 54.96504 | 24.07393 | 247 ft | 11 kts | 77° |
| 2026-04-16 09:42 | 54.96552 | 24.07481 | 247 ft | 11 kts | 27° |
| 2026-04-16 09:42 | 54.96563 | 24.07558 | 248 ft | 2 kts | 97° |
| 2026-04-16 09:43 | 54.96563 | 24.07563 | 248 ft | 0 kts | 95° |